Time;durP1;ratioP1;P1;durP2;ratioP2;P2;SDS_P1;SDS_P2;PMS_P1;PMS_P2;Temp;Humidity;BMP_temperature;BMP_pressure;BME280_temperature;BME280_humidity;BME280_pressure;Samples;Min_cycle;Max_cycle;Signal;HPM_P1;HPM_P2
2023/11/20 00:01:27;;;;;;;;;;;179.60;2252.80;;;;;;4973469;28;19910;-74
2023/11/20 00:03:53;;;;;;;;;;;179.70;2252.80;;;;;;4985826;28;19905;-75
2023/11/20 00:06:19;;;;;;;;;;;179.70;2252.80;;;;;;4988011;28;19905;-75
2023/11/20 00:08:44;;;;;;;;;;;179.70;2252.80;;;;;;4983556;28;19906;-76
2023/11/20 00:11:11;;;;;;;;;;;179.60;2252.80;;;;;;4970887;28;20001;-75
2023/11/20 00:13:37;;;;;;;;;;;179.70;2252.80;;;;;;4976296;28;19909;-74
2023/11/20 00:16:03;;;;;;;;;;;179.80;2252.80;;;;;;4990588;28;20280;-73
2023/11/20 00:18:28;;;;;;;;;;;180.00;2252.80;;;;;;4993286;28;19916;-75
2023/11/20 00:20:55;;;;;;;;;;;180.10;2252.80;;;;;;4996653;28;19917;-77
2023/11/20 00:23:22;;;;;;;;;;;204.80;2252.80;;;;;;4979438;28;19910;-75
2023/11/20 00:25:48;;;;;;;;;;;204.80;2252.80;;;;;;4979323;28;19992;-74
2023/11/20 00:28:14;;;;;;;;;;;204.90;2252.80;;;;;;4996796;28;20008;-75
2023/11/20 00:30:39;;;;;;;;;;;205.00;2252.80;;;;;;4996731;28;19952;-77
2023/11/20 00:33:05;;;;;;;;;;;180.00;2252.80;;;;;;4996986;28;20280;-74
2023/11/20 00:35:30;;;;;;;;;;;179.90;2252.80;;;;;;4996639;28;19913;-77
2023/11/20 00:37:56;;;;;;;;;;;204.80;2252.80;;;;;;4996657;28;19909;-78
2023/11/20 00:40:22;;;;;;;;;;;180.00;2252.80;;;;;;4979145;28;20380;-74
2023/11/20 00:42:48;;;;;;;;;;;204.80;2252.80;;;;;;4996574;28;19913;-74
2023/11/20 00:45:13;;;;;;;;;;;179.90;2252.80;;;;;;4996334;28;19956;-74
2023/11/20 00:47:39;;;;;;;;;;;180.10;2252.80;;;;;;4996657;28;19910;-74
2023/11/20 00:50:05;;;;;;;;;;;204.80;2252.80;;;;;;4996116;28;19909;-74
2023/11/20 00:52:31;;;;;;;;;;;205.00;2252.80;;;;;;4996148;28;19956;-74
2023/11/20 00:54:58;;;;;;;;;;;205.10;2252.80;;;;;;4996122;28;19912;-75
2023/11/20 00:57:23;;;;;;;;;;;205.10;2252.80;;;;;;4996213;28;19913;-74
2023/11/20 00:59:49;;;;;;;;;;;205.10;2252.80;;;;;;4996034;28;20256;-75
2023/11/20 01:02:15;;;;;;;;;;;205.00;2252.80;;;;;;4996168;28;19906;-74
2023/11/20 01:04:41;;;;;;;;;;;205.10;2252.80;;;;;;4978196;28;20418;-74
2023/11/20 01:07:06;;;;;;;;;;;205.20;2252.80;;;;;;4996205;28;19906;-74
2023/11/20 01:09:32;;;;;;;;;;;205.10;2252.80;;;;;;4995809;28;20372;-75
2023/11/20 01:11:57;;;;;;;;;;;205.10;2252.80;;;;;;4978481;28;19910;-74
2023/11/20 01:14:23;;;;;;;;;;;204.90;2252.80;;;;;;4995813;28;19905;-74
2023/11/20 01:16:49;;;;;;;;;;;180.10;2252.80;;;;;;4995817;28;19914;-74
2023/11/20 01:19:14;;;;;;;;;;;204.90;2252.80;;;;;;4995868;28;19996;-76
2023/11/20 01:21:42;;;;;;;;;;;204.80;2252.80;;;;;;4995417;28;19925;-75
2023/11/20 01:24:07;;;;;;;;;;;204.80;2252.80;;;;;;4995662;28;20387;-74
2023/11/20 01:26:35;;;;;;;;;;;180.10;2252.80;;;;;;4995390;28;19906;-74
2023/11/20 01:29:00;;;;;;;;;;;204.80;2252.80;;;;;;4995508;28;19906;-74
2023/11/20 01:31:26;;;;;;;;;;;180.10;2252.80;;;;;;4995434;28;19906;-74
2023/11/20 01:33:52;;;;;;;;;;;180.10;2252.80;;;;;;4978078;28;19906;-74
2023/11/20 01:36:17;;;;;;;;;;;204.80;2252.80;;;;;;4995256;28;19945;-75
2023/11/20 01:38:43;;;;;;;;;;;180.10;2252.80;;;;;;4995381;28;19905;-74
2023/11/20 01:41:09;;;;;;;;;;;180.10;2252.80;;;;;;4995280;28;19906;-75
2023/11/20 01:43:34;;;;;;;;;;;204.90;2252.80;;;;;;4995340;28;19905;-75
2023/11/20 01:46:08;;;;;;;;;;;180.10;2252.80;;;;;;4978138;28;19906;-74
2023/11/20 01:48:34;;;;;;;;;;;180.10;2252.80;;;;;;4995738;28;20422;-75
2023/11/20 01:51:00;;;;;;;;;;;204.80;2252.80;;;;;;4995159;28;19914;-74
2023/11/20 01:53:27;;;;;;;;;;;180.10;2252.80;;;;;;4995262;28;20331;-75
2023/11/20 01:55:52;;;;;;;;;;;180.10;2252.80;;;;;;4994928;28;19920;-74
2023/11/20 01:58:18;;;;;;;;;;;180.00;2252.80;;;;;;4995050;28;20000;-78
2023/11/20 02:00:44;;;;;;;;;;;180.00;2252.80;;;;;;4994885;28;19905;-74
2023/11/20 02:03:10;;;;;;;;;;;180.00;2252.80;;;;;;4977583;28;19905;-75
2023/11/20 02:05:36;;;;;;;;;;;180.00;2252.80;;;;;;4994883;28;20115;-74
2023/11/20 02:08:01;;;;;;;;;;;204.80;2252.80;;;;;;4994875;28;19913;-75
2023/11/20 02:10:28;;;;;;;;;;;204.80;2252.80;;;;;;4995438;28;20064;-74
2023/11/20 02:12:54;;;;;;;;;;;204.80;2252.80;;;;;;4994665;28;20413;-74
2023/11/20 02:15:20;;;;;;;;;;;180.10;2252.80;;;;;;4994714;28;19906;-74
2023/11/20 02:17:45;;;;;;;;;;;180.00;2252.80;;;;;;4994881;28;20040;-73
2023/11/20 02:20:11;;;;;;;;;;;179.90;2252.80;;;;;;4976921;28;20372;-75
2023/11/20 02:22:36;;;;;;;;;;;180.10;2252.80;;;;;;4994753;28;20001;-75
2023/11/20 02:25:02;;;;;;;;;;;204.80;2252.80;;;;;;4994325;28;19913;-74
2023/11/20 02:27:28;;;;;;;;;;;204.90;2252.80;;;;;;4994542;28;20409;-74
2023/11/20 02:29:54;;;;;;;;;;;204.90;2252.80;;;;;;4977040;28;20339;-74
2023/11/20 02:32:20;;;;;;;;;;;180.10;2252.80;;;;;;4977213;28;20048;-74
2023/11/20 02:34:46;;;;;;;;;;;204.80;2252.80;;;;;;4976923;28;20271;-74
2023/11/20 02:37:11;;;;;;;;;;;205.00;2252.80;;;;;;4994394;28;19913;-74
2023/11/20 02:39:40;;;;;;;;;;;204.90;2252.80;;;;;;4993777;28;19913;-74
2023/11/20 02:42:08;;;;;;;;;;;204.80;2252.80;;;;;;4994407;28;20368;-74
2023/11/20 02:44:37;;;;;;;;;;;204.90;2252.80;;;;;;4994279;28;19959;-76
2023/11/20 02:47:04;;;;;;;;;;;204.80;2252.80;;;;;;4994407;28;19906;-74
2023/11/20 02:49:29;;;;;;;;;;;180.10;2252.80;;;;;;4994099;28;20402;-74
2023/11/20 02:51:55;;;;;;;;;;;180.10;2252.80;;;;;;4994247;28;19953;-74
2023/11/20 02:54:20;;;;;;;;;;;204.80;2252.80;;;;;;4993749;28;19984;-74
2023/11/20 02:56:46;;;;;;;;;;;180.10;2252.80;;;;;;4976599;28;19914;-75
2023/11/20 02:59:11;;;;;;;;;;;179.90;2252.80;;;;;;4993830;28;19909;-74
2023/11/20 03:01:37;;;;;;;;;;;179.90;2252.80;;;;;;4976638;28;19913;-74
2023/11/20 03:04:03;;;;;;;;;;;179.70;2252.80;;;;;;4993868;28;20352;-73
2023/11/20 03:06:28;;;;;;;;;;;179.70;2252.80;;;;;;4993908;28;19933;-75
2023/11/20 03:08:54;;;;;;;;;;;179.70;2252.80;;;;;;4993757;28;20356;-74
2023/11/20 03:11:19;;;;;;;;;;;179.30;2252.80;;;;;;4994048;28;20378;-73
2023/11/20 03:13:45;;;;;;;;;;;179.30;2252.80;;;;;;4993846;28;19953;-75
2023/11/20 03:16:10;;;;;;;;;;;179.30;2252.80;;;;;;4994268;28;19914;-74
2023/11/20 03:18:39;;;;;;;;;;;179.30;2252.80;;;;;;4994026;28;19910;-78
2023/11/20 03:21:05;;;;;;;;;;;154.50;2252.80;;;;;;4993723;28;19925;-74
2023/11/20 03:23:30;;;;;;;;;;;154.40;2252.80;;;;;;4993945;28;19910;-76
2023/11/20 03:25:56;;;;;;;;;;;154.40;2252.80;;;;;;4994264;28;19906;-75
2023/11/20 03:28:21;;;;;;;;;;;179.40;2252.80;;;;;;4993776;28;20359;-78
2023/11/20 03:30:47;;;;;;;;;;;179.60;2252.80;;;;;;4976580;28;20252;-75
2023/11/20 03:33:12;;;;;;;;;;;179.50;2252.80;;;;;;4992802;28;19933;-78
2023/11/20 03:35:38;;;;;;;;;;;179.70;2252.80;;;;;;4993592;28;19997;-75
2023/11/20 03:38:04;;;;;;;;;;;179.70;2252.80;;;;;;4993363;28;19913;-74
2023/11/20 03:40:29;;;;;;;;;;;179.70;2252.80;;;;;;4993554;28;19906;-75
2023/11/20 03:42:55;;;;;;;;;;;179.70;2252.80;;;;;;4993922;28;19913;-78
2023/11/20 03:45:20;;;;;;;;;;;179.40;2252.80;;;;;;4976047;28;20344;-74
2023/11/20 03:47:46;;;;;;;;;;;154.50;2252.80;;;;;;4976195;28;19906;-76
2023/11/20 03:50:11;;;;;;;;;;;179.30;2252.80;;;;;;4993328;28;19925;-77
2023/11/20 03:52:37;;;;;;;;;;;179.50;2252.80;;;;;;4979913;28;20278;-75
2023/11/20 03:55:02;;;;;;;;;;;179.60;2252.80;;;;;;4997253;28;19913;-75
2023/11/20 03:57:28;;;;;;;;;;;179.20;2252.80;;;;;;4997210;28;20378;-75
2023/11/20 03:59:54;;;;;;;;;;;154.50;2252.80;;;;;;4997566;28;19906;-75
2023/11/20 04:02:19;;;;;;;;;;;179.20;2252.80;;;;;;4997271;28;20008;-74
2023/11/20 04:04:45;;;;;;;;;;;179.50;2252.80;;;;;;4997476;28;19905;-75
2023/11/20 04:07:11;;;;;;;;;;;179.40;2252.80;;;;;;4997297;28;19913;-74
2023/11/20 04:09:36;;;;;;;;;;;179.70;2252.80;;;;;;4996999;28;19964;-74
2023/11/20 04:12:02;;;;;;;;;;;179.80;2252.80;;;;;;4997213;28;19906;-74
2023/11/20 04:14:29;;;;;;;;;;;179.70;2252.80;;;;;;4979419;28;19912;-74
2023/11/20 04:16:54;;;;;;;;;;;179.60;2252.80;;;;;;4996768;28;20375;-74
2023/11/20 04:19:20;;;;;;;;;;;179.30;2252.80;;;;;;4996827;28;19906;-75
2023/11/20 04:21:46;;;;;;;;;;;179.50;2252.80;;;;;;4996759;28;19922;-74
2023/11/20 04:24:12;;;;;;;;;;;179.60;2252.80;;;;;;4996640;28;19906;-74
2023/11/20 04:26:38;;;;;;;;;;;179.60;2252.80;;;;;;4996855;28;19931;-74
2023/11/20 04:29:04;;;;;;;;;;;179.50;2252.80;;;;;;4996763;28;20376;-74
2023/11/20 04:31:29;;;;;;;;;;;179.20;2252.80;;;;;;4996570;28;20055;-74
2023/11/20 04:33:55;;;;;;;;;;;179.20;2252.80;;;;;;4996880;28;20252;-74
2023/11/20 04:36:21;;;;;;;;;;;179.20;2252.80;;;;;;4996391;28;19913;-74
2023/11/20 04:38:46;;;;;;;;;;;154.30;2252.80;;;;;;4996718;28;20382;-74
2023/11/20 04:41:13;;;;;;;;;;;154.40;2252.80;;;;;;4996430;28;19906;-74
2023/11/20 04:43:39;;;;;;;;;;;154.30;2252.80;;;;;;4996540;28;19981;-74
2023/11/20 04:46:09;;;;;;;;;;;154.40;2252.80;;;;;;4996349;28;19914;-74
2023/11/20 04:48:34;;;;;;;;;;;154.30;2252.80;;;;;;4996535;28;19906;-74
2023/11/20 04:51:00;;;;;;;;;;;154.30;2252.80;;;;;;4996215;28;20352;-78
2023/11/20 04:53:26;;;;;;;;;;;179.20;2252.80;;;;;;4996455;28;20379;-75
2023/11/20 04:55:52;;;;;;;;;;;179.50;2252.80;;;;;;4995942;28;19921;-74
2023/11/20 04:58:21;;;;;;;;;;;179.50;2252.80;;;;;;4996225;28;19906;-78
2023/11/20 05:00:51;;;;;;;;;;;179.50;2252.80;;;;;;4996058;28;19941;-75
2023/11/20 05:03:17;;;;;;;;;;;179.50;2252.80;;;;;;4978350;28;20274;-74
2023/11/20 05:05:43;;;;;;;;;;;179.70;2252.80;;;;;;4996022;28;19992;-75
2023/11/20 05:08:10;;;;;;;;;;;179.70;2252.80;;;;;;4978630;28;19952;-76
2023/11/20 05:10:36;;;;;;;;;;;179.90;2252.80;;;;;;4995801;28;19913;-75
2023/11/20 05:13:02;;;;;;;;;;;180.10;2252.80;;;;;;4978638;28;19909;-74
2023/11/20 05:15:27;;;;;;;;;;;179.90;2252.80;;;;;;4995630;28;19905;-75
2023/11/20 05:17:53;;;;;;;;;;;180.00;2252.80;;;;;;4996016;28;19913;-75
2023/11/20 05:20:19;;;;;;;;;;;179.70;2252.80;;;;;;4994179;28;20359;-74
2023/11/20 05:22:45;;;;;;;;;;;179.50;2252.80;;;;;;4995958;28;19910;-75
2023/11/20 05:25:11;;;;;;;;;;;179.80;2252.80;;;;;;4978109;28;20284;-74
2023/11/20 05:27:37;;;;;;;;;;;180.00;2252.80;;;;;;4977828;28;19949;-74
2023/11/20 05:30:04;;;;;;;;;;;180.10;2252.80;;;;;;4995636;28;19956;-75
2023/11/20 05:32:29;;;;;;;;;;;180.10;2252.80;;;;;;4995836;28;19964;-75
2023/11/20 05:34:55;;;;;;;;;;;204.80;2252.80;;;;;;4978506;28;20319;-74
2023/11/20 05:37:20;;;;;;;;;;;180.10;2252.80;;;;;;4995671;28;19913;-74
2023/11/20 05:39:46;;;;;;;;;;;204.80;2252.80;;;;;;4995583;28;19906;-76
2023/11/20 05:42:11;;;;;;;;;;;204.80;2252.80;;;;;;4995572;28;19906;-75
2023/11/20 05:44:37;;;;;;;;;;;180.10;2252.80;;;;;;4995118;28;19905;-75
2023/11/20 05:47:03;;;;;;;;;;;204.80;2252.80;;;;;;4975555;28;19910;-74
2023/11/20 05:49:28;;;;;;;;;;;204.90;2252.80;;;;;;4987439;28;19913;-75
2023/11/20 05:51:54;;;;;;;;;;;205.00;2252.80;;;;;;4964775;28;20340;-74
2023/11/20 05:54:19;;;;;;;;;;;204.90;2252.80;;;;;;4990745;28;20322;-74
2023/11/20 05:56:48;;;;;;;;;;;204.80;2252.80;;;;;;4992590;28;19914;-74
2023/11/20 05:59:13;;;;;;;;;;;204.80;2252.80;;;;;;4970817;28;19906;-74
2023/11/20 06:01:40;;;;;;;;;;;204.80;2252.80;;;;;;4987404;28;19917;-74
2023/11/20 06:04:08;;;;;;;;;;;204.90;2252.80;;;;;;4994036;28;20283;-75
2023/11/20 06:06:37;;;;;;;;;;;204.90;2252.80;;;;;;4973706;28;19910;-74
2023/11/20 06:09:05;;;;;;;;;;;204.80;2252.80;;;;;;4987811;28;19906;-76
2023/11/20 06:11:31;;;;;;;;;;;180.00;2252.80;;;;;;4983256;28;19984;-76
2023/11/20 06:13:57;;;;;;;;;;;204.80;2252.80;;;;;;4990426;28;20368;-74
2023/11/20 06:16:23;;;;;;;;;;;179.70;2252.80;;;;;;4993688;28;19920;-75
2023/11/20 06:18:48;;;;;;;;;;;205.00;2252.80;;;;;;4988524;28;19996;-74
2023/11/20 06:21:14;;;;;;;;;;;204.90;2252.80;;;;;;4993227;28;20360;-74
2023/11/20 06:23:40;;;;;;;;;;;204.80;2252.80;;;;;;4988756;28;19952;-75
2023/11/20 06:26:05;;;;;;;;;;;204.90;2252.80;;;;;;4990568;28;19914;-75
2023/11/20 06:28:31;;;;;;;;;;;205.00;2252.80;;;;;;4989797;28;19906;-75
2023/11/20 06:30:56;;;;;;;;;;;205.00;2252.80;;;;;;4985993;28;19912;-74
2023/11/20 06:33:22;;;;;;;;;;;205.00;2252.80;;;;;;4986885;28;19906;-74
2023/11/20 06:35:48;;;;;;;;;;;204.90;2252.80;;;;;;4964183;28;20363;-74
2023/11/20 06:38:13;;;;;;;;;;;205.10;2252.80;;;;;;4983348;28;19996;-74
2023/11/20 06:40:39;;;;;;;;;;;205.20;2252.80;;;;;;4985518;28;19909;-74
2023/11/20 06:43:05;;;;;;;;;;;205.20;2252.80;;;;;;4988943;28;19909;-74
2023/11/20 06:45:30;;;;;;;;;;;205.30;2252.80;;;;;;4965374;28;19909;-75
2023/11/20 06:47:56;;;;;;;;;;;205.30;2252.80;;;;;;4988391;28;19972;-74
2023/11/20 06:50:22;;;;;;;;;;;205.30;2252.80;;;;;;4989854;28;20327;-73
2023/11/20 06:52:48;;;;;;;;;;;205.30;2252.80;;;;;;4990097;28;20356;-76
2023/11/20 06:55:14;;;;;;;;;;;205.30;2252.80;;;;;;4989262;28;20000;-72
2023/11/20 06:57:39;;;;;;;;;;;205.40;2252.80;;;;;;4964195;28;19970;-73
2023/11/20 07:00:05;;;;;;;;;;;205.40;2252.80;;;;;;4990278;28;20028;-74
2023/11/20 07:02:31;;;;;;;;;;;205.40;2252.80;;;;;;4986866;28;19910;-73
2023/11/20 07:04:58;;;;;;;;;;;205.40;2252.80;;;;;;4992671;28;19910;-72
2023/11/20 07:07:24;;;;;;;;;;;205.50;2252.80;;;;;;4986489;28;19909;-72
2023/11/20 07:09:50;;;;;;;;;;;205.40;2252.80;;;;;;4982940;28;20004;-77
2023/11/20 07:12:16;;;;;;;;;;;205.60;2252.80;;;;;;4975774;28;19909;-77
2023/11/20 07:14:42;;;;;;;;;;;205.70;2252.80;;;;;;4991552;28;20303;-81
2023/11/20 07:17:07;;;;;;;;;;;205.70;2252.80;;;;;;4993131;28;19918;-82
2023/11/20 07:19:33;;;;;;;;;;;230.40;2252.80;;;;;;4970451;28;19910;-81
2023/11/20 07:21:58;;;;;;;;;;;205.70;2252.80;;;;;;4974030;28;20351;-82
2023/11/20 07:24:25;;;;;;;;;;;205.60;2252.80;;;;;;4991266;28;19906;-78
2023/11/20 07:26:50;;;;;;;;;;;205.60;2252.80;;;;;;4974610;28;20314;-79
2023/11/20 07:29:16;;;;;;;;;;;205.50;2252.80;;;;;;4980496;28;19906;-77
2023/11/20 07:31:42;;;;;;;;;;;205.70;2252.80;;;;;;4980432;28;19906;-77
2023/11/20 07:34:07;;;;;;;;;;;230.50;2252.80;;;;;;4997666;28;19905;-78
2023/11/20 07:36:33;;;;;;;;;;;230.50;2252.80;;;;;;4994310;28;20020;-77
2023/11/20 07:38:59;;;;;;;;;;;230.70;2252.80;;;;;;4979715;28;19955;-76
2023/11/20 07:41:25;;;;;;;;;;;230.70;2252.80;;;;;;4996507;28;20006;-76
2023/11/20 07:43:50;;;;;;;;;;;230.90;2252.80;;;;;;4992986;28;19905;-76
2023/11/20 07:46:16;;;;;;;;;;;230.90;2252.80;;;;;;4992275;28;19909;-76
2023/11/20 07:48:42;;;;;;;;;;;230.90;2252.80;;;;;;4979744;28;20271;-78
2023/11/20 07:51:07;;;;;;;;;;;231.00;2252.80;;;;;;4974025;28;19910;-77
2023/11/20 07:53:33;;;;;;;;;;;231.10;2252.80;;;;;;4977608;28;19914;-76
2023/11/20 07:55:58;;;;;;;;;;;231.10;2252.80;;;;;;4986764;28;19914;-77
2023/11/20 07:58:26;;;;;;;;;;;231.20;2252.80;;;;;;4988287;28;19910;-76
2023/11/20 08:00:52;;;;;;;;;;;231.20;2252.80;;;;;;4989495;28;19937;-77
2023/11/20 08:03:17;;;;;;;;;;;231.30;2252.80;;;;;;4993493;28;19920;-79
2023/11/20 08:05:45;;;;;;;;;;;256.00;2252.80;;;;;;4991576;28;20004;-77
2023/11/20 08:08:12;;;;;;;;;;;256.10;2252.80;;;;;;4988730;28;19948;-79
2023/11/20 08:10:37;;;;;;;;;;;256.30;2252.80;;;;;;4992369;28;19909;-78
2023/11/20 08:13:04;;;;;;;;;;;256.30;2252.80;;;;;;4986671;28;19960;-77
2023/11/20 08:15:30;;;;;;;;;;;256.50;2252.80;;;;;;4992663;28;19909;-77
2023/11/20 08:17:55;;;;;;;;;;;256.50;2252.80;;;;;;4991625;28;19914;-78
2023/11/20 08:20:21;;;;;;;;;;;256.60;2252.80;;;;;;4992451;28;19924;-76
2023/11/20 08:22:47;;;;;;;;;;;256.80;2252.80;;;;;;4972174;28;19914;-77
2023/11/20 08:25:13;;;;;;;;;;;256.80;2252.80;;;;;;4994519;28;20000;-77
2023/11/20 08:27:40;;;;;;;;;;;256.90;2252.80;;;;;;4974608;28;19917;-76
2023/11/20 08:30:06;;;;;;;;;;;256.80;2252.80;;;;;;4989532;28;19906;-75
2023/11/20 08:32:33;;;;;;;;;;;256.90;2252.80;;;;;;4967897;28;20012;-76
2023/11/20 08:34:58;;;;;;;;;;;256.90;2252.80;;;;;;4977522;28;19912;-74
2023/11/20 08:37:24;;;;;;;;;;;256.90;2252.80;;;;;;4987786;28;19914;-75
2023/11/20 08:39:49;;;;;;;;;;;256.90;2252.80;;;;;;4989970;28;20352;-75
2023/11/20 08:42:15;;;;;;;;;;;281.60;2278.40;;;;;;4990034;28;19961;-75
2023/11/20 08:44:41;;;;;;;;;;;281.80;2278.40;;;;;;4975161;28;19906;-75
2023/11/20 08:47:07;;;;;;;;;;;282.00;2278.40;;;;;;4995522;28;19906;-76
2023/11/20 08:49:32;;;;;;;;;;;282.00;2278.40;;;;;;4988474;28;19968;-74
2023/11/20 08:51:58;;;;;;;;;;;282.20;2278.40;;;;;;4978304;28;19952;-75
2023/11/20 08:54:24;;;;;;;;;;;282.40;2278.40;;;;;;4987080;28;20319;-74
2023/11/20 08:56:51;;;;;;;;;;;307.30;2304.00;;;;;;4987612;28;19914;-75
2023/11/20 08:59:19;;;;;;;;;;;307.60;2304.00;;;;;;4993069;28;19906;-75
2023/11/20 09:01:47;;;;;;;;;;;307.70;2304.00;;;;;;4988899;28;20004;-75
2023/11/20 09:04:13;;;;;;;;;;;307.80;2304.00;;;;;;4996021;28;19905;-74
2023/11/20 09:06:38;;;;;;;;;;;307.90;2304.00;;;;;;4989931;28;20471;-73
2023/11/20 09:09:08;;;;;;;;;;;308.00;2304.00;;;;;;4994091;28;19906;-74
2023/11/20 09:11:33;;;;;;;;;;;308.00;2304.00;;;;;;4972083;28;19909;-75
2023/11/20 09:13:59;;;;;;;;;;;332.80;2329.60;;;;;;4991315;28;20352;-77
2023/11/20 09:16:25;;;;;;;;;;;332.90;2329.60;;;;;;4975383;28;20283;-77
2023/11/20 09:18:51;;;;;;;;;;;332.90;2329.60;;;;;;4965849;28;19921;-74
2023/11/20 09:21:16;;;;;;;;;;;333.10;2329.60;;;;;;4987309;28;20331;-74
2023/11/20 09:23:43;;;;;;;;;;;333.40;2329.60;;;;;;4989657;28;20367;-77
2023/11/20 09:26:11;;;;;;;;;;;333.50;2329.60;;;;;;4989193;28;19913;-76
2023/11/20 09:28:38;;;;;;;;;;;358.60;2329.60;;;;;;4992456;28;19914;-77
2023/11/20 09:31:04;;;;;;;;;;;358.60;2329.60;;;;;;4966867;28;19938;-76
2023/11/20 09:33:30;;;;;;;;;;;358.60;2329.60;;;;;;4993288;28;19996;-77
2023/11/20 09:35:55;;;;;;;;;;;358.90;2329.60;;;;;;4989270;28;19910;-76
2023/11/20 09:38:21;;;;;;;;;;;359.20;2329.60;;;;;;4983701;28;19910;-76
2023/11/20 09:40:46;;;;;;;;;;;359.20;2329.60;;;;;;4964786;28;19917;-75
2023/11/20 09:43:12;;;;;;;;;;;384.10;2329.60;;;;;;4970066;28;19916;-77
2023/11/20 09:45:39;;;;;;;;;;;384.50;2329.60;;;;;;4966036;28;20001;-78
2023/11/20 09:48:06;;;;;;;;;;;384.70;2329.60;;;;;;4976356;28;19910;-77
2023/11/20 09:50:32;;;;;;;;;;;409.60;2355.20;;;;;;4971541;28;19949;-76
2023/11/20 09:52:59;;;;;;;;;;;409.90;2355.20;;;;;;4975108;28;19972;-76
2023/11/20 09:55:25;;;;;;;;;;;410.20;2355.20;;;;;;4977255;28;19913;-77
2023/11/20 09:57:51;;;;;;;;;;;435.20;2278.40;;;;;;4992414;28;19936;-78
2023/11/20 10:00:17;;;;;;;;;;;435.30;2252.80;;;;;;4988517;28;19916;-76
2023/11/20 10:02:46;;;;;;;;;;;435.50;2176.00;;;;;;4990086;28;20274;-77
2023/11/20 10:05:12;;;;;;;;;;;;;;;;;;4990858;28;19906;-77
2023/11/20 10:07:38;;;;;;;;;;;435.70;2099.20;;;;;;4988773;28;19928;-77
2023/11/20 10:10:05;;;;;;;;;;;435.80;2073.60;;;;;;4974073;28;20000;-77
2023/11/20 10:12:31;;;;;;;;;;;;;;;;;;4971763;28;20049;-76
2023/11/20 10:14:57;;;;;;;;;;;435.90;2048.00;;;;;;4988716;28;19997;-78
2023/11/20 10:17:23;;;;;;;;;;;436.00;2048.00;;;;;;4966719;28;19925;-77
2023/11/20 10:19:49;;;;;;;;;;;436.10;2022.40;;;;;;4988190;28;20008;-75
2023/11/20 10:22:19;;;;;;;;;;;460.80;2048.00;;;;;;4989394;28;19964;-75
2023/11/20 10:24:45;;;;;;;;;;;;;;;;;;4991895;28;19985;-75
2023/11/20 10:27:12;;;;;;;;;;;461.20;1996.80;;;;;;4988133;28;20351;-74
2023/11/20 10:29:38;;;;;;;;;;;461.40;1971.20;;;;;;4987446;28;20376;-75
2023/11/20 10:32:04;;;;;;;;;;;461.50;1971.20;;;;;;4986926;28;19906;-75
2023/11/20 10:34:30;;;;;;;;;;;461.00;1996.80;;;;;;4970989;28;19906;-76
2023/11/20 10:37:04;;;;;;;;;;;461.20;1996.80;;;;;;4968815;28;19914;-74
2023/11/20 10:39:29;;;;;;;;;;;436.00;2022.40;;;;;;4986858;28;19905;-76
2023/11/20 10:41:56;;;;;;;;;;;435.50;2048.00;;;;;;4968271;28;19985;-76
2023/11/20 10:44:25;;;;;;;;;;;435.50;2022.40;;;;;;4967350;28;20009;-76
2023/11/20 10:46:50;;;;;;;;;;;435.30;2048.00;;;;;;4987507;28;19905;-75
2023/11/20 10:49:19;;;;;;;;;;;435.40;2124.80;;;;;;4976265;28;19906;-75
2023/11/20 10:51:52;;;;;;;;;;;435.30;2124.80;;;;;;4990893;28;19914;-75
2023/11/20 10:54:24;;;;;;;;;;;435.30;2150.40;;;;;;4987797;28;19910;-76
2023/11/20 10:56:51;;;;;;;;;;;435.20;2124.80;;;;;;4985501;28;19922;-75
2023/11/20 10:59:21;;;;;;;;;;;410.40;2201.60;;;;;;4971880;28;19913;-75
2023/11/20 11:01:48;;;;;;;;;;;410.40;2252.80;;;;;;4967490;28;19905;-75
2023/11/20 11:04:15;;;;;;;;;;;410.30;2278.40;;;;;;4993422;28;19906;-76
2023/11/20 11:06:42;;;;;;;;;;;410.20;2227.20;;;;;;4963771;28;19905;-76
2023/11/20 11:09:08;;;;;;;;;;;410.20;2278.40;;;;;;4989378;28;19905;-76
2023/11/20 11:11:34;;;;;;;;;;;410.30;2252.80;;;;;;4984736;28;19916;-76
2023/11/20 11:14:00;;;;;;;;;;;435.20;2227.20;;;;;;4990190;28;19905;-76
2023/11/20 11:16:29;;;;;;;;;;;435.20;2227.20;;;;;;4987960;28;20376;-75
2023/11/20 11:19:15;;;;;;;;;;;435.20;2150.40;;;;;;4987898;28;19905;-76
2023/11/20 11:21:52;;;;;;;;;;;410.50;2176.00;;;;;;4984086;28;19921;-75
2023/11/20 11:24:20;;;;;;;;;;;435.20;2201.60;;;;;;4979843;28;19914;-75
2023/11/20 11:26:48;;;;;;;;;;;435.40;2124.80;;;;;;4986697;28;19910;-76
2023/11/20 11:29:20;;;;;;;;;;;435.50;2150.40;;;;;;4987904;28;19910;-75
2023/11/20 11:31:56;;;;;;;;;;;435.50;2124.80;;;;;;4973135;28;20344;-77
2023/11/20 11:34:22;;;;;;;;;;;435.50;2073.60;;;;;;4992875;28;19960;-77
2023/11/20 11:36:56;;;;;;;;;;;435.40;2150.40;;;;;;4990259;28;19917;-74
2023/11/20 11:39:27;;;;;;;;;;;435.50;2150.40;;;;;;4965490;28;19906;-75
2023/11/20 11:42:31;;;;;;;;;;;435.30;2099.20;;;;;;4975804;28;19905;-76
2023/11/20 11:44:59;;;;;;;;;;;435.20;2124.80;;;;;;4902923;29;19907;-75
2023/11/20 11:47:26;;;;;;;;;;;410.40;2150.40;;;;;;4905087;29;19911;-74
2023/11/20 11:49:52;;;;;;;;;;;410.40;2201.60;;;;;;4916685;29;19911;-76
2023/11/20 11:52:27;;;;;;;;;;;410.20;2201.60;;;;;;4915185;29;19939;-76
2023/11/20 11:55:12;;;;;;;;;;;410.00;2278.40;;;;;;4913466;29;19968;-76
2023/11/20 11:57:41;;;;;;;;;;;410.00;2304.00;;;;;;4899018;29;19919;-76
2023/11/20 12:00:11;;;;;;;;;;;410.20;2304.00;;;;;;4917662;29;19907;-75
2023/11/20 12:03:09;;;;;;;;;;;410.10;2329.60;;;;;;4905695;29;19918;-75
2023/11/20 12:05:55;;;;;;;;;;;410.40;2304.00;;;;;;4863918;29;19919;-76
2023/11/20 12:08:25;;;;;;;;;;;410.40;2329.60;;;;;;4863418;29;20382;-76
2023/11/20 12:10:52;;;;;;;;;;;410.40;2329.60;;;;;;4839459;29;19908;-77
2023/11/20 12:13:20;;;;;;;;;;;410.20;2355.20;;;;;;4848790;29;19908;-78
2023/11/20 12:15:47;;;;;;;;;;;410.00;2355.20;;;;;;4896374;29;19911;-77
2023/11/20 12:18:18;;;;;;;;;;;409.90;2355.20;;;;;;4906444;29;20025;-76
2023/11/20 12:20:50;;;;;;;;;;;409.90;2355.20;;;;;;4892813;29;19919;-76
2023/11/20 12:23:19;;;;;;;;;;;409.90;2355.20;;;;;;4904984;29;20418;-75
2023/11/20 12:25:46;;;;;;;;;;;409.80;2355.20;;;;;;4909600;29;19926;-74
2023/11/20 12:28:12;;;;;;;;;;;384.70;2329.60;;;;;;4909395;29;19962;-77
2023/11/20 12:30:37;;;;;;;;;;;409.70;2355.20;;;;;;4894571;29;20006;-76
2023/11/20 12:33:04;;;;;;;;;;;409.70;2355.20;;;;;;4911904;29;19997;-76
2023/11/20 12:35:31;;;;;;;;;;;409.60;2355.20;;;;;;4911086;29;20002;-76
2023/11/20 12:37:58;;;;;;;;;;;384.90;2329.60;;;;;;4908065;29;20704;-76
2023/11/20 12:40:24;;;;;;;;;;;384.90;2329.60;;;;;;4905932;29;19907;-76
2023/11/20 12:42:50;;;;;;;;;;;384.90;2329.60;;;;;;4951973;28;19910;-77
2023/11/20 12:45:16;;;;;;;;;;;384.90;2329.60;;;;;;4974977;28;19912;-76
2023/11/20 12:47:41;;;;;;;;;;;384.90;2329.60;;;;;;4993464;28;19906;-76
2023/11/20 12:50:13;;;;;;;;;;;384.90;2329.60;;;;;;4973070;28;19971;-76
2023/11/20 12:52:40;;;;;;;;;;;409.60;2355.20;;;;;;4972504;28;19910;-76
2023/11/20 12:55:07;;;;;;;;;;;409.70;2355.20;;;;;;4993884;28;19906;-77
2023/11/20 12:57:36;;;;;;;;;;;409.90;2355.20;;;;;;4978505;28;19920;-78
2023/11/20 13:00:04;;;;;;;;;;;409.70;2355.20;;;;;;4992989;28;20371;-76
2023/11/20 13:02:32;;;;;;;;;;;409.60;2355.20;;;;;;4976049;28;19981;-76
2023/11/20 13:05:02;;;;;;;;;;;409.60;2355.20;;;;;;4971892;28;19993;-77
2023/11/20 13:07:28;;;;;;;;;;;384.90;2329.60;;;;;;4991118;28;19913;-77
2023/11/20 13:09:54;;;;;;;;;;;384.90;2329.60;;;;;;4972856;28;19906;-77
2023/11/20 13:12:21;;;;;;;;;;;384.90;2329.60;;;;;;4969099;28;19937;-75
2023/11/20 13:15:00;;;;;;;;;;;384.80;2329.60;;;;;;4991255;28;20359;-76
2023/11/20 13:17:27;;;;;;;;;;;384.70;2329.60;;;;;;4975162;28;20394;-75
2023/11/20 13:19:53;;;;;;;;;;;384.80;2329.60;;;;;;4990776;28;19909;-83
2023/11/20 13:22:19;;;;;;;;;;;384.90;2329.60;;;;;;4969983;28;19950;-77
2023/11/20 13:24:45;;;;;;;;;;;409.80;2355.20;;;;;;4989772;28;20342;-77
2023/11/20 13:27:11;;;;;;;;;;;384.60;2329.60;;;;;;4988783;28;19906;-78
2023/11/20 13:29:37;;;;;;;;;;;410.10;2355.20;;;;;;4968586;28;20352;-77
2023/11/20 13:32:23;;;;;;;;;;;384.60;2329.60;;;;;;4988262;28;19937;-76
2023/11/20 13:34:49;;;;;;;;;;;384.60;2329.60;;;;;;4976977;28;20064;-79
2023/11/20 13:37:14;;;;;;;;;;;384.60;2329.60;;;;;;4969511;28;19965;-78
2023/11/20 13:39:41;;;;;;;;;;;384.60;2329.60;;;;;;4974230;28;19906;-76